sensor_id;sensor_type;location;lat;lon;timestamp;pressure;altitude;pressure_sealevel;temperature;humidity
17254;BME280;32542;52.832;13.816;2024-02-14T00:01:57;101823.84;;;20.93;51.21
17254;BME280;32542;52.832;13.816;2024-02-14T00:05:00;101831.00;;;20.91;51.12
17254;BME280;32542;52.832;13.816;2024-02-14T00:08:05;101830.13;;;20.91;51.22
17254;BME280;32542;52.832;13.816;2024-02-14T00:11:10;101835.50;;;20.89;51.21
17254;BME280;32542;52.832;13.816;2024-02-14T00:14:13;101833.72;;;20.90;51.21
17254;BME280;32542;52.832;13.816;2024-02-14T00:17:16;101831.13;;;20.88;51.12
17254;BME280;32542;52.832;13.816;2024-02-14T00:20:19;101824.91;;;20.88;51.18
17254;BME280;32542;52.832;13.816;2024-02-14T00:23:21;101821.38;;;20.87;51.05
17254;BME280;32542;52.832;13.816;2024-02-14T00:26:26;101823.16;;;20.87;51.09
17254;BME280;32542;52.832;13.816;2024-02-14T00:29:29;101819.66;;;20.86;51.17
17254;BME280;32542;52.832;13.816;2024-02-14T00:32:32;101826.75;;;20.86;51.05
17254;BME280;32542;52.832;13.816;2024-02-14T00:35:35;101816.97;;;20.86;51.19
17254;BME280;32542;52.832;13.816;2024-02-14T00:38:38;101821.44;;;20.86;51.18
17254;BME280;32542;52.832;13.816;2024-02-14T00:41:43;101826.81;;;20.84;51.08
17254;BME280;32542;52.832;13.816;2024-02-14T00:44:45;101822.38;;;20.83;51.19
17254;BME280;32542;52.832;13.816;2024-02-14T00:47:48;101822.38;;;20.83;50.97
17254;BME280;32542;52.832;13.816;2024-02-14T00:50:51;101825.13;;;20.82;51.08
17254;BME280;32542;52.832;13.816;2024-02-14T00:53:54;101824.22;;;20.81;51.15
17254;BME280;32542;52.832;13.816;2024-02-14T00:56:59;101826.91;;;20.81;51.16
17254;BME280;32542;52.832;13.816;2024-02-14T01:00:02;101815.44;;;20.79;51.08
17254;BME280;32542;52.832;13.816;2024-02-14T01:03:06;101823.41;;;20.79;50.96
17254;BME280;32542;52.832;13.816;2024-02-14T01:06:09;101823.41;;;20.79;51.00
17254;BME280;32542;52.832;13.816;2024-02-14T01:09:12;101813.66;;;20.78;51.09
17254;BME280;32542;52.832;13.816;2024-02-14T01:12:16;101809.28;;;20.77;51.05
17254;BME280;32542;52.832;13.816;2024-02-14T01:15:19;101803.06;;;20.77;50.99
17254;BME280;32542;52.832;13.816;2024-02-14T01:18:23;101805.75;;;20.77;51.06
17254;BME280;32542;52.832;13.816;2024-02-14T01:21:26;101809.28;;;20.77;51.02
17254;BME280;32542;52.832;13.816;2024-02-14T01:24:29;101804.84;;;20.76;50.93
17254;BME280;32542;52.832;13.816;2024-02-14T01:27:34;101811.13;;;20.75;51.06
17254;BME280;32542;52.832;13.816;2024-02-14T01:30:37;101808.47;;;20.75;51.03
17254;BME280;32542;52.832;13.816;2024-02-14T01:33:40;101806.69;;;20.74;50.94
17254;BME280;32542;52.832;13.816;2024-02-14T01:36:46;101805.84;;;20.74;50.94
17254;BME280;32542;52.832;13.816;2024-02-14T01:39:48;101802.31;;;20.73;50.97
17254;BME280;32542;52.832;13.816;2024-02-14T01:42:53;101799.66;;;20.73;50.96
17254;BME280;32542;52.832;13.816;2024-02-14T01:46:04;101803.22;;;20.72;50.85
17254;BME280;32542;52.832;13.816;2024-02-14T01:49:07;101796.16;;;20.71;50.86
17254;BME280;32542;52.832;13.816;2024-02-14T01:52:11;101792.63;;;20.71;50.97
17254;BME280;32542;52.832;13.816;2024-02-14T01:55:14;101788.19;;;20.71;50.98
17254;BME280;32542;52.832;13.816;2024-02-14T01:58:18;101790.84;;;20.71;50.83
17254;BME280;32542;52.832;13.816;2024-02-14T02:01:21;101790.84;;;20.71;51.04
17254;BME280;32542;52.832;13.816;2024-02-14T02:04:25;101796.16;;;20.71;50.92
17254;BME280;32542;52.832;13.816;2024-02-14T02:07:28;101790.84;;;20.71;50.91
17254;BME280;32542;52.832;13.816;2024-02-14T02:10:31;101784.63;;;20.71;50.92
17254;BME280;32542;52.832;13.816;2024-02-14T02:13:36;101774.00;;;20.71;50.78
17254;BME280;32542;52.832;13.816;2024-02-14T02:16:40;101781.16;;;20.69;50.93
17254;BME280;32542;52.832;13.816;2024-02-14T02:19:43;101771.38;;;20.69;50.93
17254;BME280;32542;52.832;13.816;2024-02-14T02:22:48;101780.28;;;20.68;50.95
17254;BME280;32542;52.832;13.816;2024-02-14T02:25:51;101777.63;;;20.68;50.92
17254;BME280;32542;52.832;13.816;2024-02-14T02:28:54;101774.06;;;20.68;50.95
17254;BME280;32542;52.832;13.816;2024-02-14T02:31:57;101783.88;;;20.67;50.80
17254;BME280;32542;52.832;13.816;2024-02-14T02:34:59;101785.66;;;20.67;50.87
17254;BME280;32542;52.832;13.816;2024-02-14T02:38:04;101784.72;;;20.68;50.84
17254;BME280;32542;52.832;13.816;2024-02-14T02:41:07;101773.22;;;20.67;50.89
17254;BME280;32542;52.832;13.816;2024-02-14T02:44:10;101780.28;;;20.68;50.91
17254;BME280;32542;52.832;13.816;2024-02-14T02:47:13;101774.06;;;20.68;50.98
17254;BME280;32542;52.832;13.816;2024-02-14T02:50:18;101770.56;;;20.67;50.93
17254;BME280;32542;52.832;13.816;2024-02-14T02:53:22;101769.63;;;20.68;50.93
17254;BME280;32542;52.832;13.816;2024-02-14T02:56:25;101780.34;;;20.67;50.86
17254;BME280;32542;52.832;13.816;2024-02-14T02:59:29;101774.13;;;20.66;50.80
17254;BME280;32542;52.832;13.816;2024-02-14T03:02:32;101771.47;;;20.66;50.75
17254;BME280;32542;52.832;13.816;2024-02-14T03:05:35;101772.41;;;20.65;50.94
17254;BME280;32542;52.832;13.816;2024-02-14T03:08:41;101759.94;;;20.66;50.82
17254;BME280;32542;52.832;13.816;2024-02-14T03:11:46;101759.09;;;20.65;50.77
17254;BME280;32542;52.832;13.816;2024-02-14T03:14:49;101752.91;;;20.65;50.86
17254;BME280;32542;52.832;13.816;2024-02-14T03:17:51;101759.13;;;20.64;50.94
17254;BME280;32542;52.832;13.816;2024-02-14T03:20:55;101747.63;;;20.63;50.76
17254;BME280;32542;52.832;13.816;2024-02-14T03:23:59;101750.28;;;20.63;50.78
17254;BME280;32542;52.832;13.816;2024-02-14T03:27:02;101752.03;;;20.64;50.77
17254;BME280;32542;52.832;13.816;2024-02-14T03:30:07;101756.47;;;20.64;50.83
17254;BME280;32542;52.832;13.816;2024-02-14T03:33:10;101748.47;;;20.64;50.79
17254;BME280;32542;52.832;13.816;2024-02-14T03:36:13;101749.41;;;20.63;50.92
17254;BME280;32542;52.832;13.816;2024-02-14T03:39:17;101745.81;;;20.64;50.85
17254;BME280;32542;52.832;13.816;2024-02-14T03:42:20;101740.50;;;20.64;50.85
17254;BME280;32542;52.832;13.816;2024-02-14T03:45:23;101732.56;;;20.62;50.84
17254;BME280;32542;52.832;13.816;2024-02-14T03:48:26;101734.34;;;20.62;50.84
17254;BME280;32542;52.832;13.816;2024-02-14T03:51:29;101729.09;;;20.60;50.79
17254;BME280;32542;52.832;13.816;2024-02-14T03:54:33;101726.44;;;20.60;50.96
17254;BME280;32542;52.832;13.816;2024-02-14T03:57:36;101731.75;;;20.60;50.75
17254;BME280;32542;52.832;13.816;2024-02-14T04:00:41;101720.22;;;20.60;50.75
17254;BME280;32542;52.832;13.816;2024-02-14T04:03:46;101715.78;;;20.60;50.72
17254;BME280;32542;52.832;13.816;2024-02-14T04:06:49;101726.38;;;20.62;50.86
17254;BME280;32542;52.832;13.816;2024-02-14T04:09:54;101732.56;;;20.62;50.83
17254;BME280;32542;52.832;13.816;2024-02-14T04:12:56;101719.25;;;20.62;50.85
17254;BME280;32542;52.832;13.816;2024-02-14T04:15:59;101716.59;;;20.62;50.82
17254;BME280;32542;52.832;13.816;2024-02-14T04:19:02;101715.63;;;20.65;50.74
17254;BME280;32542;52.832;13.816;2024-02-14T04:22:06;101729.81;;;20.65;50.69
17254;BME280;32542;52.832;13.816;2024-02-14T04:25:11;101727.16;;;20.65;50.60
17254;BME280;32542;52.832;13.816;2024-02-14T04:28:14;101727.16;;;20.65;50.60
17254;BME280;32542;52.832;13.816;2024-02-14T04:31:17;101726.22;;;20.66;50.61
17254;BME280;32542;52.832;13.816;2024-02-14T04:34:20;101724.44;;;20.67;50.58
17254;BME280;32542;52.832;13.816;2024-02-14T04:37:23;101725.31;;;20.67;50.61
17254;BME280;32542;52.832;13.816;2024-02-14T04:40:27;101717.28;;;20.69;50.47
17254;BME280;32542;52.832;13.816;2024-02-14T04:43:30;101711.94;;;20.69;50.58
17254;BME280;32542;52.832;13.816;2024-02-14T04:46:33;101715.44;;;20.71;50.55
17254;BME280;32542;52.832;13.816;2024-02-14T04:49:36;101701.25;;;20.70;50.64
17254;BME280;32542;52.832;13.816;2024-02-14T04:52:39;101697.69;;;20.71;50.57
17254;BME280;32542;52.832;13.816;2024-02-14T04:55:43;101699.41;;;20.72;50.50
17254;BME280;32542;52.832;13.816;2024-02-14T04:58:46;101702.94;;;20.73;50.57
17254;BME280;32542;52.832;13.816;2024-02-14T05:01:49;101703.81;;;20.73;50.52
17254;BME280;32542;52.832;13.816;2024-02-14T05:04:53;101703.81;;;20.73;50.52
17254;BME280;32542;52.832;13.816;2024-02-14T05:07:56;101716.19;;;20.74;50.40
17254;BME280;32542;52.832;13.816;2024-02-14T05:11:01;101721.53;;;20.74;50.42
17254;BME280;32542;52.832;13.816;2024-02-14T05:14:05;101718.00;;;20.74;50.35
17254;BME280;32542;52.832;13.816;2024-02-14T05:17:08;101714.47;;;20.73;50.29
17254;BME280;32542;52.832;13.816;2024-02-14T05:20:11;101705.59;;;20.73;50.20
17254;BME280;32542;52.832;13.816;2024-02-14T05:23:14;101716.25;;;20.73;50.32
17254;BME280;32542;52.832;13.816;2024-02-14T05:26:20;101704.69;;;20.74;50.26
17254;BME280;32542;52.832;13.816;2024-02-14T05:29:23;101706.47;;;20.73;50.24
17254;BME280;32542;52.832;13.816;2024-02-14T05:32:26;101702.06;;;20.72;50.27
17254;BME280;32542;52.832;13.816;2024-02-14T05:35:28;101692.31;;;20.73;50.29
17254;BME280;32542;52.832;13.816;2024-02-14T05:38:31;101698.56;;;20.72;50.32
17254;BME280;32542;52.832;13.816;2024-02-14T05:41:36;101702.06;;;20.72;50.30
17254;BME280;32542;52.832;13.816;2024-02-14T05:44:39;101698.56;;;20.72;50.32
17254;BME280;32542;52.832;13.816;2024-02-14T05:47:42;101691.41;;;20.72;50.49
17254;BME280;32542;52.832;13.816;2024-02-14T05:50:45;101688.81;;;20.71;50.42
17254;BME280;32542;52.832;13.816;2024-02-14T05:53:48;101687.03;;;20.71;50.44
17254;BME280;32542;52.832;13.816;2024-02-14T05:56:52;101679.06;;;20.71;50.41
17254;BME280;32542;52.832;13.816;2024-02-14T05:59:55;101680.84;;;20.71;50.43
17254;BME280;32542;52.832;13.816;2024-02-14T06:02:58;101685.25;;;20.72;50.48
17254;BME280;32542;52.832;13.816;2024-02-14T06:06:01;101689.69;;;20.71;50.40
17254;BME280;32542;52.832;13.816;2024-02-14T06:09:04;101678.16;;;20.71;50.41
17254;BME280;32542;52.832;13.816;2024-02-14T06:12:12;101671.97;;;20.70;50.33
17254;BME280;32542;52.832;13.816;2024-02-14T06:15:15;101671.97;;;20.70;50.37
17254;BME280;32542;52.832;13.816;2024-02-14T06:18:19;101664.00;;;20.70;50.49
17254;BME280;32542;52.832;13.816;2024-02-14T06:21:22;101670.25;;;20.69;50.45
17254;BME280;32542;52.832;13.816;2024-02-14T06:24:24;101667.59;;;20.69;50.42
17254;BME280;32542;52.832;13.816;2024-02-14T06:27:29;101671.97;;;20.70;50.33
17254;BME280;32542;52.832;13.816;2024-02-14T06:30:32;101666.66;;;20.70;50.41
17254;BME280;32542;52.832;13.816;2024-02-14T06:33:35;101671.97;;;20.70;50.42
17254;BME280;32542;52.832;13.816;2024-02-14T06:36:38;101666.66;;;20.70;50.38
17254;BME280;32542;52.832;13.816;2024-02-14T06:39:41;101668.41;;;20.71;50.48
17254;BME280;32542;52.832;13.816;2024-02-14T06:42:45;101672.84;;;20.71;50.34
17254;BME280;32542;52.832;13.816;2024-02-14T06:45:49;101668.44;;;20.70;50.52
17254;BME280;32542;52.832;13.816;2024-02-14T06:48:52;101670.25;;;20.69;50.43
17254;BME280;32542;52.832;13.816;2024-02-14T06:51:56;101670.25;;;20.69;50.45
17254;BME280;32542;52.832;13.816;2024-02-14T06:54:59;101667.59;;;20.69;50.42
17254;BME280;32542;52.832;13.816;2024-02-14T06:58:04;101668.50;;;20.68;50.41
17254;BME280;32542;52.832;13.816;2024-02-14T07:01:07;101652.53;;;20.68;50.47
17254;BME280;32542;52.832;13.816;2024-02-14T07:04:13;101655.19;;;20.68;50.52
17254;BME280;32542;52.832;13.816;2024-02-14T07:07:16;101653.41;;;20.69;50.39
17254;BME280;32542;52.832;13.816;2024-02-14T07:10:19;101647.19;;;20.68;50.42
17254;BME280;32542;52.832;13.816;2024-02-14T07:13:23;101651.63;;;20.69;50.46
17254;BME280;32542;52.832;13.816;2024-02-14T07:16:26;101640.03;;;20.70;50.45
17254;BME280;32542;52.832;13.816;2024-02-14T07:19:28;101646.22;;;20.71;50.37
17254;BME280;32542;52.832;13.816;2024-02-14T07:22:31;101650.69;;;20.70;50.41
17254;BME280;32542;52.832;13.816;2024-02-14T07:25:35;101649.78;;;20.71;50.31
17254;BME280;32542;52.832;13.816;2024-02-14T07:28:39;101655.13;;;20.70;50.45
17254;BME280;32542;52.832;13.816;2024-02-14T07:31:42;101666.66;;;20.70;50.34
17254;BME280;32542;52.832;13.816;2024-02-14T07:34:45;101660.44;;;20.70;50.44
17254;BME280;32542;52.832;13.816;2024-02-14T07:37:48;101652.47;;;20.70;50.32
17254;BME280;32542;52.832;13.816;2024-02-14T07:40:52;101647.19;;;20.68;50.49
17254;BME280;32542;52.832;13.816;2024-02-14T07:43:56;101640.97;;;20.69;50.42
17254;BME280;32542;52.832;13.816;2024-02-14T07:46:59;101649.81;;;20.70;50.38
17254;BME280;32542;52.832;13.816;2024-02-14T07:50:06;101645.34;;;20.70;50.33
17254;BME280;32542;52.832;13.816;2024-02-14T07:53:09;101643.63;;;20.69;50.44
17254;BME280;32542;52.832;13.816;2024-02-14T07:56:11;101648.00;;;20.72;50.35
17254;BME280;32542;52.832;13.816;2024-02-14T07:59:16;101645.34;;;20.70;50.42
17254;BME280;32542;52.832;13.816;2024-02-14T08:02:19;101653.31;;;20.72;50.48
17254;BME280;32542;52.832;13.816;2024-02-14T08:05:22;101657.75;;;20.71;50.36
17254;BME280;32542;52.832;13.816;2024-02-14T08:08:25;101657.75;;;20.71;50.46
17254;BME280;32542;52.832;13.816;2024-02-14T08:11:29;101663.16;;;20.68;50.23
17254;BME280;32542;52.832;13.816;2024-02-14T08:14:33;101656.22;;;20.64;49.62
17254;BME280;32542;52.832;13.816;2024-02-14T08:17:36;101654.56;;;20.60;48.92
17254;BME280;32542;52.832;13.816;2024-02-14T08:20:39;101645.78;;;20.58;48.09
17254;BME280;32542;52.832;13.816;2024-02-14T08:23:42;101651.97;;;20.59;48.41
17254;BME280;32542;52.832;13.816;2024-02-14T08:26:45;101645.78;;;20.58;48.57
17254;BME280;32542;52.832;13.816;2024-02-14T08:29:50;101636.84;;;20.59;48.71
17254;BME280;32542;52.832;13.816;2024-02-14T08:32:53;101634.09;;;20.62;49.01
17254;BME280;32542;52.832;13.816;2024-02-14T08:35:56;101630.47;;;20.65;49.16
17254;BME280;32542;52.832;13.816;2024-02-14T08:38:59;101626.84;;;20.67;49.12
17254;BME280;32542;52.832;13.816;2024-02-14T08:42:02;101618.75;;;20.70;49.29
17254;BME280;32542;52.832;13.816;2024-02-14T08:45:10;101621.31;;;20.73;49.27
17254;BME280;32542;52.832;13.816;2024-02-14T08:48:13;101618.53;;;20.76;49.39
17254;BME280;32542;52.832;13.816;2024-02-14T08:51:17;101624.72;;;20.77;49.50
17254;BME280;32542;52.832;13.816;2024-02-14T08:54:22;101616.69;;;20.78;49.34
17254;BME280;32542;52.832;13.816;2024-02-14T08:57:25;101614.84;;;20.80;49.49
17254;BME280;32542;52.832;13.816;2024-02-14T09:00:29;101614.75;;;20.83;49.42
17254;BME280;32542;52.832;13.816;2024-02-14T09:03:33;101611.16;;;20.84;49.49
17254;BME280;32542;52.832;13.816;2024-02-14T09:06:36;101607.56;;;20.85;49.52
17254;BME280;32542;52.832;13.816;2024-02-14T09:09:41;101613.78;;;20.86;49.62
17254;BME280;32542;52.832;13.816;2024-02-14T09:12:43;101609.31;;;20.86;49.59
17254;BME280;32542;52.832;13.816;2024-02-14T09:15:48;101601.28;;;20.88;49.61
17254;BME280;32542;52.832;13.816;2024-02-14T09:18:51;101605.72;;;20.87;49.74
17254;BME280;32542;52.832;13.816;2024-02-14T09:21:55;101599.50;;;20.88;49.66
17254;BME280;32542;52.832;13.816;2024-02-14T09:24:58;101595.00;;;20.89;49.67
17254;BME280;32542;52.832;13.816;2024-02-14T09:28:00;101590.56;;;20.89;49.67
17254;BME280;32542;52.832;13.816;2024-02-14T09:31:05;101597.63;;;20.90;49.70
17254;BME280;32542;52.832;13.816;2024-02-14T09:34:08;101590.56;;;20.89;49.63
17254;BME280;32542;52.832;13.816;2024-02-14T09:37:12;101593.22;;;20.89;49.87
17254;BME280;32542;52.832;13.816;2024-02-14T09:40:15;101598.56;;;20.89;49.85
17254;BME280;32542;52.832;13.816;2024-02-14T09:43:26;101591.50;;;20.88;49.84
17254;BME280;32542;52.832;13.816;2024-02-14T09:46:35;101596.81;;;20.88;49.95
17254;BME280;32542;52.832;13.816;2024-02-14T09:49:39;101599.50;;;20.88;49.93
17254;BME280;32542;52.832;13.816;2024-02-14T09:52:43;101607.47;;;20.88;50.16
17254;BME280;32542;52.832;13.816;2024-02-14T09:55:46;101600.41;;;20.87;50.06
17254;BME280;32542;52.832;13.816;2024-02-14T09:58:49;101598.69;;;20.86;50.12
17254;BME280;32542;52.832;13.816;2024-02-14T10:02:00;101605.72;;;20.87;50.18
17254;BME280;32542;52.832;13.816;2024-02-14T10:05:04;101601.34;;;20.86;50.07
17254;BME280;32542;52.832;13.816;2024-02-14T10:08:07;101601.28;;;20.88;50.00
17254;BME280;32542;52.832;13.816;2024-02-14T10:11:11;101590.63;;;20.88;50.13
17254;BME280;32542;52.832;13.816;2024-02-14T10:14:16;101588.84;;;20.88;50.17
17254;BME280;32542;52.832;13.816;2024-02-14T10:17:20;101590.56;;;20.89;50.09
17254;BME280;32542;52.832;13.816;2024-02-14T10:20:23;101591.44;;;20.90;50.28
17254;BME280;32542;52.832;13.816;2024-02-14T10:23:27;101594.97;;;20.90;50.29
17254;BME280;32542;52.832;13.816;2024-02-14T10:26:31;101592.34;;;20.89;50.28
17254;BME280;32542;52.832;13.816;2024-02-14T10:29:34;101586.19;;;20.88;50.25
17254;BME280;32542;52.832;13.816;2024-02-14T10:32:39;101586.19;;;20.88;50.29
17254;BME280;32542;52.832;13.816;2024-02-14T10:35:43;101580.84;;;20.88;50.37
17254;BME280;32542;52.832;13.816;2024-02-14T10:38:47;101585.31;;;20.88;50.38
17254;BME280;32542;52.832;13.816;2024-02-14T10:41:51;101579.09;;;20.87;50.44
17254;BME280;32542;52.832;13.816;2024-02-14T10:44:54;101571.13;;;20.87;50.62
17254;BME280;32542;52.832;13.816;2024-02-14T10:48:00;101572.88;;;20.88;50.48
17254;BME280;32542;52.832;13.816;2024-02-14T10:51:05;101570.19;;;20.88;50.59
17254;BME280;32542;52.832;13.816;2024-02-14T10:54:10;101570.19;;;20.88;50.48
17254;BME280;32542;52.832;13.816;2024-02-14T10:57:15;101564.88;;;20.88;50.52
17254;BME280;32542;52.832;13.816;2024-02-14T11:00:20;101569.25;;;20.89;50.54
17254;BME280;32542;52.832;13.816;2024-02-14T11:03:25;101555.94;;;20.89;50.75
17254;BME280;32542;52.832;13.816;2024-02-14T11:06:28;101557.69;;;20.90;50.61
17254;BME280;32542;52.832;13.816;2024-02-14T11:09:32;101557.69;;;20.90;50.67
17254;BME280;32542;52.832;13.816;2024-02-14T11:12:38;101547.91;;;20.91;50.74
17254;BME280;32542;52.832;13.816;2024-02-14T11:15:44;101553.22;;;20.91;50.57
17254;BME280;32542;52.832;13.816;2024-02-14T11:18:49;101554.09;;;20.91;50.69
17254;BME280;32542;52.832;13.816;2024-02-14T11:21:52;101542.56;;;20.91;50.69
17254;BME280;32542;52.832;13.816;2024-02-14T11:24:55;101541.72;;;20.90;50.76
17254;BME280;32542;52.832;13.816;2024-02-14T11:27:59;101543.44;;;20.91;50.70
17254;BME280;32542;52.832;13.816;2024-02-14T11:31:03;101539.88;;;20.92;50.88
17254;BME280;32542;52.832;13.816;2024-02-14T11:34:08;101546.94;;;20.93;50.80
17254;BME280;32542;52.832;13.816;2024-02-14T11:37:12;101541.59;;;20.93;50.74
17254;BME280;32542;52.832;13.816;2024-02-14T11:40:19;101548.69;;;20.94;50.73
17254;BME280;32542;52.832;13.816;2024-02-14T11:43:22;101545.06;;;20.95;50.73
17254;BME280;32542;52.832;13.816;2024-02-14T11:46:25;101537.09;;;20.95;50.60
17254;BME280;32542;52.832;13.816;2024-02-14T11:49:32;101532.63;;;20.96;50.81
17254;BME280;32542;52.832;13.816;2024-02-14T11:52:35;101534.41;;;20.97;50.76
17254;BME280;32542;52.832;13.816;2024-02-14T11:55:38;101531.75;;;20.95;50.69
17254;BME280;32542;52.832;13.816;2024-02-14T11:58:42;101536.19;;;20.96;50.87
17254;BME280;32542;52.832;13.816;2024-02-14T12:01:45;101536.19;;;20.96;50.84
17254;BME280;32542;52.832;13.816;2024-02-14T12:04:51;101524.66;;;20.96;50.83
17254;BME280;32542;52.832;13.816;2024-02-14T12:07:55;101524.66;;;20.96;50.91
17254;BME280;32542;52.832;13.816;2024-02-14T12:10:59;101529.09;;;20.95;50.91
17254;BME280;32542;52.832;13.816;2024-02-14T12:14:02;101541.50;;;20.96;50.84
17254;BME280;32542;52.832;13.816;2024-02-14T12:17:05;101537.06;;;20.97;50.80
17254;BME280;32542;52.832;13.816;2024-02-14T12:20:11;101532.56;;;20.97;50.76
17254;BME280;32542;52.832;13.816;2024-02-14T12:23:16;101532.56;;;20.97;50.85
17254;BME280;32542;52.832;13.816;2024-02-14T12:26:19;101536.13;;;20.98;50.79
17254;BME280;32542;52.832;13.816;2024-02-14T12:29:23;101532.56;;;20.97;50.68
17254;BME280;32542;52.832;13.816;2024-02-14T12:32:27;101531.72;;;20.97;50.70
17254;BME280;32542;52.832;13.816;2024-02-14T12:35:31;101529.91;;;20.97;50.76
17254;BME280;32542;52.832;13.816;2024-02-14T12:38:37;101532.56;;;20.97;50.78
17254;BME280;32542;52.832;13.816;2024-02-14T12:41:39;101528.13;;;20.98;50.89
17254;BME280;32542;52.832;13.816;2024-02-14T12:44:42;101527.25;;;20.97;50.87
17254;BME280;32542;52.832;13.816;2024-02-14T12:47:45;101528.13;;;20.98;50.87
17254;BME280;32542;52.832;13.816;2024-02-14T12:50:50;101526.34;;;20.98;50.91
17254;BME280;32542;52.832;13.816;2024-02-14T12:53:54;101516.56;;;20.99;50.92
17254;BME280;32542;52.832;13.816;2024-02-14T12:56:57;101530.72;;;20.99;50.98
17254;BME280;32542;52.832;13.816;2024-02-14T13:00:00;101529.88;;;20.99;51.04
17254;BME280;32542;52.832;13.816;2024-02-14T13:03:03;101526.34;;;20.98;51.31
17254;BME280;32542;52.832;13.816;2024-02-14T13:06:09;101525.41;;;20.99;51.37
17254;BME280;32542;52.832;13.816;2024-02-14T13:09:12;101523.59;;;21.00;51.38
17254;BME280;32542;52.832;13.816;2024-02-14T13:12:17;101527.16;;;21.00;51.65
17254;BME280;32542;52.832;13.816;2024-02-14T13:15:20;101528.91;;;21.02;51.93
17254;BME280;32542;52.832;13.816;2024-02-14T13:18:23;101527.09;;;21.04;51.83
17254;BME280;32542;52.832;13.816;2024-02-14T13:21:28;101530.66;;;21.03;52.00
17254;BME280;32542;52.832;13.816;2024-02-14T13:24:31;101543.06;;;21.04;52.00
17254;BME280;32542;52.832;13.816;2024-02-14T13:27:34;101535.97;;;21.03;52.14
17254;BME280;32542;52.832;13.816;2024-02-14T13:30:37;101535.97;;;21.03;52.13
17254;BME280;32542;52.832;13.816;2024-02-14T13:33:41;101530.66;;;21.03;52.21
17254;BME280;32542;52.832;13.816;2024-02-14T13:36:46;101536.84;;;21.03;52.22
17254;BME280;32542;52.832;13.816;2024-02-14T13:39:48;101538.66;;;21.03;52.16
17254;BME280;32542;52.832;13.816;2024-02-14T13:42:52;101535.06;;;21.04;52.08
17254;BME280;32542;52.832;13.816;2024-02-14T13:45:54;101538.59;;;21.04;52.25
17254;BME280;32542;52.832;13.816;2024-02-14T13:48:57;101537.75;;;21.04;52.17
17254;BME280;32542;52.832;13.816;2024-02-14T13:52:02;101525.25;;;21.04;52.16
17254;BME280;32542;52.832;13.816;2024-02-14T13:55:05;101533.22;;;21.06;52.05
17254;BME280;32542;52.832;13.816;2024-02-14T13:58:09;101530.56;;;21.06;52.10
17254;BME280;32542;52.832;13.816;2024-02-14T14:01:16;101537.59;;;21.07;52.06
17254;BME280;32542;52.832;13.816;2024-02-14T14:04:20;101537.59;;;21.07;52.07
17254;BME280;32542;52.832;13.816;2024-02-14T14:07:24;101534.94;;;21.07;52.06
17254;BME280;32542;52.832;13.816;2024-02-14T14:10:27;101542.94;;;21.07;52.10
17254;BME280;32542;52.832;13.816;2024-02-14T14:13:31;101545.59;;;21.07;52.07
17254;BME280;32542;52.832;13.816;2024-02-14T14:16:35;101535.88;;;21.06;52.15
17254;BME280;32542;52.832;13.816;2024-02-14T14:19:37;101536.78;;;21.05;52.11
17254;BME280;32542;52.832;13.816;2024-02-14T14:22:42;101541.22;;;21.06;52.06
17254;BME280;32542;52.832;13.816;2024-02-14T14:25:45;101542.06;;;21.06;52.13
17254;BME280;32542;52.832;13.816;2024-02-14T14:28:48;101546.53;;;21.06;52.18
17254;BME280;32542;52.832;13.816;2024-02-14T14:31:51;101544.72;;;21.06;52.37
17254;BME280;32542;52.832;13.816;2024-02-14T14:34:54;101535.81;;;21.07;52.29
17254;BME280;32542;52.832;13.816;2024-02-14T14:37:58;101544.69;;;21.08;52.07
17254;BME280;32542;52.832;13.816;2024-02-14T14:41:01;101543.81;;;21.07;52.18
17254;BME280;32542;52.832;13.816;2024-02-14T14:44:04;101544.63;;;21.09;52.16
17254;BME280;32542;52.832;13.816;2024-02-14T14:47:07;101545.50;;;21.10;52.21
17254;BME280;32542;52.832;13.816;2024-02-14T14:50:10;101548.16;;;21.10;52.11
17254;BME280;32542;52.832;13.816;2024-02-14T14:53:15;101548.16;;;21.10;52.15
17254;BME280;32542;52.832;13.816;2024-02-14T14:56:18;101557.00;;;21.10;52.08
17254;BME280;32542;52.832;13.816;2024-02-14T14:59:21;101551.66;;;21.10;52.21
17254;BME280;32542;52.832;13.816;2024-02-14T15:02:24;101554.41;;;21.09;52.17
17254;BME280;32542;52.832;13.816;2024-02-14T15:05:27;101550.81;;;21.10;52.13
17254;BME280;32542;52.832;13.816;2024-02-14T15:08:31;101550.81;;;21.10;52.10
17254;BME280;32542;52.832;13.816;2024-02-14T15:11:34;101554.41;;;21.09;52.14
17254;BME280;32542;52.832;13.816;2024-02-14T15:14:37;101552.63;;;21.09;52.17
17254;BME280;32542;52.832;13.816;2024-02-14T15:17:40;101548.16;;;21.10;52.21
17254;BME280;32542;52.832;13.816;2024-02-14T15:20:43;101553.50;;;21.10;52.15
17254;BME280;32542;52.832;13.816;2024-02-14T15:23:47;101560.53;;;21.11;52.10
17254;BME280;32542;52.832;13.816;2024-02-14T15:26:50;101556.16;;;21.10;51.98
17254;BME280;32542;52.832;13.816;2024-02-14T15:30:01;101557.88;;;21.11;51.99
17254;BME280;32542;52.832;13.816;2024-02-14T15:33:23;101559.66;;;21.10;51.98
17254;BME280;32542;52.832;13.816;2024-02-14T15:36:26;101557.06;;;21.09;52.03
17254;BME280;32542;52.832;13.816;2024-02-14T15:39:31;101565.03;;;21.09;51.99
17254;BME280;32542;52.832;13.816;2024-02-14T15:42:34;101560.66;;;21.08;51.97
17254;BME280;32542;52.832;13.816;2024-02-14T15:45:36;101573.09;;;21.07;51.99
17254;BME280;32542;52.832;13.816;2024-02-14T15:48:39;101569.56;;;21.07;51.95